createdAt,value
2022-08-17T00:00:43.055Z,98636.91
2022-08-17T00:03:19.496Z,98632.06
2022-08-17T00:05:53.666Z,98637.28
2022-08-17T00:08:26.209Z,98636.50
2022-08-17T00:10:57.114Z,98628.81
2022-08-17T00:13:34.892Z,98627.59
2022-08-17T00:16:10.423Z,98625.16
2022-08-17T00:19:05.718Z,98621.50
2022-08-17T00:21:56.311Z,98623.50
2022-08-17T00:24:18.762Z,98623.88
2022-08-17T00:26:48.178Z,98624.25
2022-08-17T00:29:20.073Z,98630.66
2022-08-17T00:31:50.671Z,98619.31
2022-08-17T00:34:19.344Z,98620.50
2022-08-17T00:36:47.730Z,98632.97
2022-08-17T00:39:16.164Z,98631.31
2022-08-17T00:41:44.735Z,98630.50
2022-08-17T00:44:13.206Z,98630.50
2022-08-17T00:46:44.720Z,98623.59
2022-08-17T00:49:16.412Z,98627.22
2022-08-17T00:51:51.901Z,98627.16
2022-08-17T00:54:25.186Z,98631.16
2022-08-17T00:57:00.074Z,98626.69
2022-08-17T00:59:32.968Z,98625.44
2022-08-17T01:02:02.754Z,98627.84
2022-08-17T01:04:34.015Z,98627.81
2022-08-17T01:07:04.650Z,98634.22
2022-08-17T01:09:34.051Z,98633.81
2022-08-17T01:12:02.463Z,98634.59
2022-08-17T01:14:30.841Z,98640.16
2022-08-17T01:17:00.250Z,98638.50
2022-08-17T01:19:35.842Z,98626.78
2022-08-17T01:22:10.271Z,98640.84
2022-08-17T01:24:43.463Z,98630.75
2022-08-17T01:27:15.702Z,98637.97
2022-08-17T01:29:53.134Z,98637.13
2022-08-17T01:32:21.763Z,98631.84
2022-08-17T01:34:50.936Z,98650.38
2022-08-17T01:37:21.629Z,98642.69
2022-08-17T01:39:58.785Z,98641.03
2022-08-17T01:42:34.239Z,98641.75
2022-08-17T01:45:10.113Z,98644.56
2022-08-17T01:47:39.007Z,98651.38
2022-08-17T01:50:13.256Z,98652.13
2022-08-17T01:52:42.731Z,98654.53
2022-08-17T01:55:14.636Z,98656.09
2022-08-17T01:57:45.557Z,98662.13
2022-08-17T02:00:15.839Z,98648.03
2022-08-17T02:02:45.926Z,98655.66
2022-08-17T02:05:15.323Z,98657.63
2022-08-17T02:07:59.773Z,98657.19
2022-08-17T02:10:33.853Z,98649.88
2022-08-17T02:13:02.848Z,98655.09
2022-08-17T02:15:32.056Z,98660.31
2022-08-17T02:18:00.774Z,98655.06
2022-08-17T02:20:41.333Z,98650.19
2022-08-17T02:23:12.582Z,98661.03
2022-08-17T02:25:45.296Z,98646.13
2022-08-17T02:28:13.707Z,98649.75
2022-08-17T02:30:59.349Z,98654.91
2022-08-17T02:33:41.864Z,98649.69
2022-08-17T02:36:13.522Z,98654.91
2022-08-17T02:38:42.798Z,98656.06
2022-08-17T02:41:13.092Z,98651.66
2022-08-17T02:43:41.990Z,98653.66
2022-08-17T02:46:12.776Z,98659.28
2022-08-17T02:48:41.842Z,98654.03
2022-08-17T02:51:10.618Z,98650.81
2022-08-17T02:53:39.094Z,98651.56
2022-08-17T02:56:08.066Z,98651.13
2022-08-17T02:58:37.943Z,98656.34
2022-08-17T03:01:09.707Z,98644.59
2022-08-17T03:03:39.819Z,98647.00
2022-08-17T03:06:09.564Z,98652.63
2022-08-17T03:08:38.610Z,98649.03
2022-08-17T03:11:07.272Z,98651.38
2022-08-17T03:13:37.036Z,98656.56
2022-08-17T03:16:06.237Z,98656.97
2022-08-17T03:18:34.767Z,98661.34
2022-08-17T03:21:04.676Z,98665.31
2022-08-17T03:23:33.819Z,98662.47
2022-08-17T03:26:02.510Z,98662.38
2022-08-17T03:28:30.883Z,98655.09
2022-08-17T03:31:00.761Z,98659.88
2022-08-17T03:33:29.190Z,98655.00
2022-08-17T03:35:58.089Z,98656.56
2022-08-17T03:38:27.648Z,98659.34
2022-08-17T03:40:59.690Z,98655.28
2022-08-17T03:43:32.560Z,98662.03
2022-08-17T03:46:28.582Z,98672.84
2022-08-17T03:49:21.663Z,98667.16
2022-08-17T03:52:07.330Z,98669.94
2022-08-17T03:54:53.168Z,98671.50
2022-08-17T03:57:21.640Z,98673.88
2022-08-17T03:59:50.782Z,98669.84
2022-08-17T04:02:25.256Z,98667.03
2022-08-17T04:04:54.242Z,98669.50
2022-08-17T04:07:27.585Z,98671.50
2022-08-17T04:09:58.091Z,98674.31
2022-08-17T04:12:31.006Z,98670.69
2022-08-17T04:15:00.188Z,98671.06
2022-08-17T04:17:30.948Z,98677.13
2022-08-17T04:19:59.498Z,98683.97
2022-08-17T04:22:31.159Z,98680.41
2022-08-17T04:25:07.923Z,98677.59
2022-08-17T04:27:36.350Z,98687.25
2022-08-17T04:30:07.513Z,98678.47
2022-08-17T04:33:10.825Z,98674.84
2022-08-17T04:35:43.974Z,98682.56
2022-08-17T04:38:16.615Z,98682.63
2022-08-17T04:41:02.809Z,98684.69
2022-08-17T04:43:33.656Z,98684.75
2022-08-17T04:46:05.681Z,98694.03
2022-08-17T04:48:39.747Z,98692.91
2022-08-17T04:51:12.083Z,98684.97
2022-08-17T04:53:42.677Z,98683.41
2022-08-17T04:56:16.127Z,98690.31
2022-08-17T04:58:49.819Z,98685.19
2022-08-17T05:01:23.977Z,98690.94
2022-08-17T05:03:56.237Z,98690.63
2022-08-17T05:06:25.408Z,98691.50
2022-08-17T05:08:54.259Z,98695.22
2022-08-17T05:11:23.587Z,98696.50
2022-08-17T05:13:52.125Z,98696.59
2022-08-17T05:16:22.244Z,98702.31
2022-08-17T05:18:50.846Z,98698.38
2022-08-17T05:21:22.123Z,98701.28
2022-08-17T05:23:54.883Z,98705.47
2022-08-17T05:26:25.938Z,98689.41
2022-08-17T05:28:59.592Z,98689.13
2022-08-17T05:31:30.000Z,98690.41
2022-08-17T05:33:59.031Z,98690.09
2022-08-17T05:36:41.565Z,98696.59
2022-08-17T05:39:16.479Z,98692.66
2022-08-17T05:41:48.784Z,98696.81
2022-08-17T05:44:18.228Z,98698.47
2022-08-17T05:46:52.389Z,98700.53
2022-08-17T05:49:27.560Z,98689.75
2022-08-17T05:52:14.691Z,98686.69
2022-08-17T05:55:04.177Z,98692.47
2022-08-17T05:57:53.075Z,98687.72
2022-08-17T06:00:30.708Z,98682.94
2022-08-17T06:03:26.758Z,98688.19
2022-08-17T06:06:31.889Z,98678.94
2022-08-17T06:09:24.809Z,98686.28
2022-08-17T06:12:01.617Z,98682.69
2022-08-17T06:14:51.218Z,98683.53
2022-08-17T06:17:23.814Z,98688.03
2022-08-17T06:19:57.020Z,98685.59
2022-08-17T06:22:30.792Z,98687.66
2022-08-17T06:25:10.209Z,98679.63
2022-08-17T06:27:42.623Z,98688.88
2022-08-17T06:30:16.574Z,98683.66
2022-08-17T06:32:48.976Z,98689.31
2022-08-17T06:35:27.783Z,98690.91
2022-08-17T06:38:33.962Z,98710.72
2022-08-17T06:41:15.492Z,98701.41
2022-08-17T06:44:10.952Z,98703.41
2022-08-17T06:46:48.681Z,98698.09
2022-08-17T06:49:28.587Z,98696.44
2022-08-17T06:52:08.046Z,98692.72
2022-08-17T06:54:47.308Z,98692.72
2022-08-17T06:57:24.910Z,98696.72
2022-08-17T06:59:58.450Z,98695.88
2022-08-17T07:02:52.934Z,98696.63
2022-08-17T07:05:26.649Z,98702.59
2022-08-17T07:08:04.029Z,98701.72
2022-08-17T07:10:44.297Z,98702.81
2022-08-17T07:13:30.746Z,98690.91
2022-08-17T07:16:15.535Z,98695.69
2022-08-17T07:18:44.863Z,98693.53
2022-08-17T07:21:27.589Z,98702.81
2022-08-17T07:24:26.192Z,98689.38
2022-08-17T07:27:13.501Z,98706.34
2022-08-17T07:29:50.599Z,98704.59
2022-08-17T07:32:25.068Z,98700.50
2022-08-17T07:35:16.247Z,98702.06
2022-08-17T07:37:50.987Z,98703.22
2022-08-17T07:40:32.165Z,98694.25
2022-08-17T07:43:22.255Z,98701.03
2022-08-17T07:46:21.477Z,98702.88
2022-08-17T07:48:52.909Z,98706.75
2022-08-17T07:51:33.899Z,98697.41
2022-08-17T07:54:22.408Z,98700.09
2022-08-17T07:56:54.287Z,98701.13
2022-08-17T07:59:33.588Z,98708.72
2022-08-17T08:02:31.808Z,98700.06
2022-08-17T08:05:10.132Z,98702.75
2022-08-17T08:07:42.560Z,98701.81
2022-08-17T08:10:15.276Z,98699.31
2022-08-17T08:12:46.023Z,98710.13
2022-08-17T08:15:19.494Z,98706.72
2022-08-17T08:17:54.542Z,98703.03
2022-08-17T08:20:53.055Z,98696.16
2022-08-17T08:23:39.591Z,98702.66
2022-08-17T08:26:27.645Z,98694.38
2022-08-17T08:29:08.395Z,98697.00
2022-08-17T08:31:57.303Z,98695.16
2022-08-17T08:34:58.923Z,98699.06
2022-08-17T08:37:49.562Z,98694.50
2022-08-17T08:40:47.749Z,98700.19
2022-08-17T08:43:30.420Z,98697.63
2022-08-17T08:46:12.310Z,98698.38
2022-08-17T08:49:12.258Z,98696.69
2022-08-17T08:51:53.242Z,98700.59
2022-08-17T08:54:36.984Z,98702.88
2022-08-17T08:57:25.606Z,98703.66
2022-08-17T09:00:15.267Z,98704.41
2022-08-17T09:03:32.409Z,98712.22
2022-08-17T09:06:40.088Z,98712.28
2022-08-17T09:09:25.487Z,98708.84
2022-08-17T09:12:06.528Z,98701.78
2022-08-17T09:14:45.361Z,98707.72
2022-08-17T09:17:20.347Z,98701.03
2022-08-17T09:19:56.014Z,98713.56
2022-08-17T09:22:37.119Z,98713.13
2022-08-17T09:25:13.318Z,98717.13
2022-08-17T09:27:54.877Z,98709.31
2022-08-17T09:30:25.074Z,98714.44
2022-08-17T09:32:59.881Z,98710.34
2022-08-17T09:35:37.640Z,98709.44
2022-08-17T09:38:22.145Z,98702.91
2022-08-17T09:41:00.907Z,98702.16
2022-08-17T09:43:43.828Z,98704.53
2022-08-17T09:46:20.361Z,98694.81
2022-08-17T09:48:58.353Z,98699.81
2022-08-17T09:51:34.402Z,98698.19
2022-08-17T09:54:21.342Z,98693.22
2022-08-17T09:57:29.324Z,98696.50
2022-08-17T10:00:16.603Z,98700.16
2022-08-17T10:03:22.112Z,98690.38
2022-08-17T10:05:57.212Z,98684.56
2022-08-17T10:08:41.190Z,98681.00
2022-08-17T10:11:33.523Z,98689.22
2022-08-17T10:14:37.607Z,98687.88
2022-08-17T10:17:11.889Z,98688.66
2022-08-17T10:19:48.000Z,98680.50
2022-08-17T10:22:42.596Z,98674.78
2022-08-17T10:25:53.633Z,98671.94
2022-08-17T10:28:28.943Z,98668.63
2022-08-17T10:31:33.606Z,98673.88
2022-08-17T10:34:18.819Z,98675.50
2022-08-17T10:36:56.473Z,98669.63
2022-08-17T10:39:35.380Z,98667.84
2022-08-17T10:42:32.963Z,98660.44
2022-08-17T10:45:08.262Z,98663.16
2022-08-17T10:48:05.082Z,98659.34
2022-08-17T10:51:00.779Z,98648.44
2022-08-17T10:54:01.792Z,98653.81
2022-08-17T10:56:51.113Z,98648.03
2022-08-17T10:59:52.643Z,98643.66
2022-08-17T11:02:33.502Z,98638.66
2022-08-17T11:05:44.067Z,98643.13
2022-08-17T11:08:43.338Z,98634.66
2022-08-17T11:11:47.488Z,98645.19
2022-08-17T11:14:33.480Z,98632.31
2022-08-17T11:17:35.492Z,98636.22
2022-08-17T11:21:01.608Z,98631.47
2022-08-17T11:24:15.277Z,98636.44
2022-08-17T11:26:48.957Z,98632.03
2022-08-17T11:29:25.663Z,98632.47
2022-08-17T11:32:07.939Z,98625.13
2022-08-17T11:34:41.811Z,98620.91
2022-08-17T11:37:44.145Z,98623.41
2022-08-17T11:41:15.590Z,98620.56
2022-08-17T11:44:23.428Z,98619.56
2022-08-17T11:47:33.704Z,98614.69
2022-08-17T11:50:56.614Z,98607.97
2022-08-17T11:54:32.411Z,98608.88
2022-08-17T11:57:22.857Z,98611.09
2022-08-17T12:00:03.629Z,98606.34
2022-08-17T12:02:48.148Z,98598.94
2022-08-17T12:05:32.934Z,98602.59
2022-08-17T12:08:19.747Z,98601.47
2022-08-17T12:11:05.750Z,98599.47
2022-08-17T12:13:46.389Z,98594.81
2022-08-17T12:16:17.809Z,98588.25
2022-08-17T12:18:53.695Z,98590.78
2022-08-17T12:21:43.705Z,98579.69
2022-08-17T12:24:31.426Z,98583.81
2022-08-17T12:27:05.362Z,98579.19
2022-08-17T12:29:38.819Z,98581.06
2022-08-17T12:32:16.644Z,98585.59
2022-08-17T12:34:47.719Z,98578.44
2022-08-17T12:37:22.031Z,98575.13
2022-08-17T12:39:55.947Z,98568.72
2022-08-17T12:42:31.222Z,98562.56
2022-08-17T12:45:00.221Z,98563.66
2022-08-17T12:47:30.157Z,98566.38
2022-08-17T12:50:28.667Z,98560.00
2022-08-17T12:53:02.339Z,98560.69
2022-08-17T12:55:36.966Z,98570.78
2022-08-17T12:58:14.431Z,98571.53
2022-08-17T13:00:51.829Z,98565.88
2022-08-17T13:03:23.732Z,98574.72
2022-08-17T13:06:01.754Z,98570.22
2022-08-17T13:08:36.154Z,98556.28
2022-08-17T13:11:09.399Z,98559.88
2022-08-17T13:13:42.958Z,98563.91
2022-08-17T13:16:20.243Z,98561.09
2022-08-17T13:18:53.756Z,98544.47
2022-08-17T13:21:30.444Z,98551.72
2022-08-17T13:24:02.784Z,98557.13
2022-08-17T13:26:35.401Z,98555.78
2022-08-17T13:29:09.493Z,98552.66
2022-08-17T13:31:51.821Z,98542.50
2022-08-17T13:35:12.090Z,98541.53
2022-08-17T13:37:33.767Z,98542.13
2022-08-17T13:40:31.134Z,98542.13
2022-08-17T13:43:00.147Z,98542.16
2022-08-17T13:45:51.124Z,98535.25
2022-08-17T13:48:32.073Z,98533.88
2022-08-17T13:51:27.983Z,98537.75
2022-08-17T13:54:21.161Z,98529.75
2022-08-17T13:57:05.345Z,98521.53
2022-08-17T13:59:55.030Z,98528.22
2022-08-17T14:02:28.536Z,98529.41
2022-08-17T14:05:00.567Z,98530.78
2022-08-17T14:07:35.650Z,98527.25
2022-08-17T14:10:10.922Z,98525.25
2022-08-17T14:12:41.921Z,98533.72
2022-08-17T14:15:12.660Z,98529.75
2022-08-17T14:17:42.574Z,98528.13
2022-08-17T14:20:14.404Z,98526.66
2022-08-17T14:22:46.633Z,98532.44
2022-08-17T14:25:18.768Z,98534.75
2022-08-17T14:27:53.185Z,98531.53
2022-08-17T14:30:25.098Z,98524.41
2022-08-17T14:32:56.697Z,98530.31
2022-08-17T14:35:27.880Z,98525.03
2022-08-17T14:37:56.834Z,98520.81
2022-08-17T14:40:26.400Z,98521.13
2022-08-17T14:42:56.795Z,98521.75
2022-08-17T14:45:31.511Z,98518.00
2022-08-17T14:48:05.856Z,98521.03
2022-08-17T14:50:35.954Z,98511.06
2022-08-17T14:53:05.959Z,98521.00
2022-08-17T14:55:35.081Z,98524.22
2022-08-17T14:58:04.360Z,98526.69
2022-08-17T15:00:33.273Z,98522.34
2022-08-17T15:03:04.341Z,98518.00
2022-08-17T15:05:36.713Z,98506.94
2022-08-17T15:08:07.132Z,98512.59
2022-08-17T15:10:36.401Z,98522.25
2022-08-17T15:13:05.020Z,98525.75
2022-08-17T15:15:33.496Z,98529.94
2022-08-17T15:18:03.798Z,98512.56
2022-08-17T15:20:32.485Z,98526.53
2022-08-17T15:23:01.020Z,98514.66
2022-08-17T15:25:32.797Z,98521.38
2022-08-17T15:28:02.748Z,98520.28
2022-08-17T15:30:32.654Z,98527.25
2022-08-17T15:33:03.441Z,98525.38
2022-08-17T15:35:34.251Z,98519.28
2022-08-17T15:38:12.173Z,98522.88
2022-08-17T15:40:45.591Z,98527.72
2022-08-17T15:43:20.113Z,98523.47
2022-08-17T15:46:00.802Z,98530.72
2022-08-17T15:48:42.170Z,98532.03
2022-08-17T15:51:14.487Z,98531.47
2022-08-17T15:53:45.147Z,98527.28
2022-08-17T15:56:15.200Z,98529.66
2022-08-17T15:58:46.719Z,98527.03
2022-08-17T16:01:35.183Z,98532.06
2022-08-17T16:04:26.690Z,98530.69
2022-08-17T16:06:55.837Z,98519.38
2022-08-17T16:09:24.254Z,98522.28
2022-08-17T16:11:55.436Z,98511.91
2022-08-17T16:14:24.413Z,98509.19
2022-08-17T16:16:59.412Z,98508.56
2022-08-17T16:19:29.189Z,98510.97
2022-08-17T16:21:57.799Z,98517.53
2022-08-17T16:24:26.438Z,98518.16
2022-08-17T16:26:55.457Z,98515.94
2022-08-17T16:29:24.701Z,98513.09
2022-08-17T16:31:53.465Z,98518.31
2022-08-17T16:34:22.058Z,98520.34
2022-08-17T16:36:55.905Z,98528.59
2022-08-17T16:39:29.844Z,98517.53
2022-08-17T16:41:58.888Z,98519.38
2022-08-17T16:44:31.889Z,98522.97
2022-08-17T16:47:01.188Z,98524.00
2022-08-17T16:49:37.234Z,98527.06
2022-08-17T16:52:11.316Z,98518.34
2022-08-17T16:54:43.959Z,98514.75
2022-08-17T16:57:13.755Z,98521.44
2022-08-17T16:59:47.498Z,98521.97
2022-08-17T17:02:24.753Z,98524.53
2022-08-17T17:05:02.770Z,98525.97
2022-08-17T17:08:00.840Z,98531.94
2022-08-17T17:10:38.795Z,98529.13
2022-08-17T17:13:13.979Z,98531.94
2022-08-17T17:15:57.510Z,98530.50
2022-08-17T17:18:38.516Z,98535.75
2022-08-17T17:21:11.037Z,98529.09
2022-08-17T17:23:52.025Z,98532.81
2022-08-17T17:26:45.016Z,98525.03
2022-08-17T17:29:29.666Z,98525.00
2022-08-17T17:32:26.365Z,98531.81
2022-08-17T17:35:02.826Z,98523.56
2022-08-17T17:37:36.410Z,98524.22
2022-08-17T17:40:15.655Z,98525.31
2022-08-17T17:42:45.651Z,98524.72
2022-08-17T17:45:22.408Z,98529.53
2022-08-17T17:47:51.469Z,98525.63
2022-08-17T17:50:27.698Z,98533.22
2022-08-17T17:53:02.582Z,98531.91
2022-08-17T17:55:48.252Z,98530.53
2022-08-17T17:58:33.798Z,98533.69
2022-08-17T18:01:20.609Z,98529.50
2022-08-17T18:04:17.037Z,98533.03
2022-08-17T18:07:12.332Z,98531.66
2022-08-17T18:10:03.445Z,98538.06
2022-08-17T18:12:44.643Z,98538.22
2022-08-17T18:15:31.489Z,98544.16
2022-08-17T18:18:31.282Z,98555.38
2022-08-17T18:21:06.614Z,98556.28
2022-08-17T18:23:35.617Z,98568.19
2022-08-17T18:26:04.118Z,98563.88
2022-08-17T18:28:36.700Z,98562.06
2022-08-17T18:31:17.747Z,98571.63
2022-08-17T18:33:49.122Z,98567.69
2022-08-17T18:36:31.077Z,98562.16
2022-08-17T18:39:12.706Z,98563.09
2022-08-17T18:41:44.133Z,98561.19
2022-08-17T18:44:29.012Z,98567.53
2022-08-17T18:47:13.582Z,98575.00
2022-08-17T18:49:43.760Z,98575.53
2022-08-17T18:52:22.867Z,98580.13
2022-08-17T18:55:09.899Z,98578.69
2022-08-17T18:57:41.733Z,98577.56
2022-08-17T19:00:20.839Z,98571.69
2022-08-17T19:02:55.791Z,98574.66
2022-08-17T19:05:35.602Z,98580.44
2022-08-17T19:08:25.562Z,98577.34
2022-08-17T19:10:59.570Z,98579.06
2022-08-17T19:13:35.180Z,98587.31
2022-08-17T19:16:16.021Z,98578.94
2022-08-17T19:18:53.332Z,98587.94
2022-08-17T19:21:27.636Z,98587.22
2022-08-17T19:24:06.152Z,98581.22
2022-08-17T19:26:53.609Z,98577.25
2022-08-17T19:29:34.394Z,98582.66
2022-08-17T19:32:05.442Z,98585.13
2022-08-17T19:34:37.875Z,98580.75
2022-08-17T19:37:15.421Z,98580.44
2022-08-17T19:39:56.504Z,98588.22
2022-08-17T19:42:42.761Z,98581.38
2022-08-17T19:45:26.672Z,98586.69
2022-08-17T19:48:07.646Z,98581.09
2022-08-17T19:50:45.125Z,98566.94
2022-08-17T19:53:54.106Z,98561.34
2022-08-17T19:56:31.831Z,98562.22
2022-08-17T19:59:11.405Z,98561.88
2022-08-17T20:01:46.451Z,98557.84
2022-08-17T20:04:32.235Z,98552.59
2022-08-17T20:07:07.758Z,98563.56
2022-08-17T20:09:40.886Z,98569.66
2022-08-17T20:12:15.267Z,98576.19
2022-08-17T20:14:53.680Z,98568.13
2022-08-17T20:17:28.345Z,98571.41
2022-08-17T20:20:07.622Z,98578.38
2022-08-17T20:22:56.007Z,98576.78
2022-08-17T20:25:42.126Z,98570.34
2022-08-17T20:28:24.430Z,98576.84
2022-08-17T20:30:53.690Z,98582.94
2022-08-17T20:33:29.731Z,98580.53
2022-08-17T20:36:19.414Z,98574.94
2022-08-17T20:38:50.897Z,98576.94
2022-08-17T20:41:22.300Z,98569.28
2022-08-17T20:44:04.197Z,98578.59
2022-08-17T20:47:06.411Z,98580.69
2022-08-17T20:49:52.225Z,98573.00
2022-08-17T20:52:52.706Z,98575.88
2022-08-17T20:55:55.757Z,98578.34
2022-08-17T20:58:49.693Z,98576.34
2022-08-17T21:01:35.068Z,98588.47
2022-08-17T21:04:09.478Z,98599.81
2022-08-17T21:07:43.372Z,98615.22
2022-08-17T21:10:18.152Z,98628.56
2022-08-17T21:12:51.501Z,98624.53
2022-08-17T21:15:35.352Z,98632.22
2022-08-17T21:18:13.913Z,98624.97
2022-08-17T21:21:04.073Z,98634.69
2022-08-17T21:23:54.742Z,98632.25
2022-08-17T21:26:33.516Z,98642.38
2022-08-17T21:29:31.397Z,98647.25
2022-08-17T21:32:24.523Z,98645.66
2022-08-17T21:35:30.440Z,98648.06
2022-08-17T21:38:05.164Z,98653.72
2022-08-17T21:40:35.324Z,98656.97
2022-08-17T21:43:23.672Z,98655.75
2022-08-17T21:46:06.638Z,98652.13
2022-08-17T21:48:45.227Z,98654.97
2022-08-17T21:51:23.539Z,98646.50
2022-08-17T21:53:56.750Z,98645.28
2022-08-17T21:56:29.240Z,98638.81
2022-08-17T21:59:02.783Z,98644.47
2022-08-17T22:01:36.594Z,98626.28
2022-08-17T22:04:19.612Z,98620.59
2022-08-17T22:06:56.626Z,98621.41
2022-08-17T22:09:28.701Z,98616.59
2022-08-17T22:12:06.826Z,98616.19
2022-08-17T22:14:52.246Z,98626.69
2022-08-17T22:17:25.989Z,98636.78
2022-08-17T22:19:58.896Z,98640.41
2022-08-17T22:22:56.827Z,98639.22
2022-08-17T22:25:26.611Z,98628.31
2022-08-17T22:27:58.263Z,98630.31
2022-08-17T22:30:37.061Z,98638.41
2022-08-17T22:33:32.450Z,98634.34
2022-08-17T22:36:14.362Z,98642.44
2022-08-17T22:38:43.853Z,98630.31
2022-08-17T22:41:51.595Z,98626.66
2022-08-17T22:44:27.251Z,98619.00
2022-08-17T22:47:11.330Z,98614.13
2022-08-17T22:49:53.025Z,98614.16
2022-08-17T22:52:35.598Z,98614.13
2022-08-17T22:55:33.001Z,98614.53
2022-08-17T22:58:20.809Z,98604.03
2022-08-17T23:00:51.152Z,98606.88
2022-08-17T23:03:24.164Z,98600.81
2022-08-17T23:06:06.188Z,98602.84
2022-08-17T23:08:37.135Z,98605.25
2022-08-17T23:11:07.788Z,98596.38
2022-08-17T23:13:37.863Z,98604.44
2022-08-17T23:16:06.562Z,98597.16
2022-08-17T23:18:37.466Z,98590.28
2022-08-17T23:21:07.760Z,98583.06
2022-08-17T23:23:37.152Z,98584.66
2022-08-17T23:26:10.455Z,98581.03
2022-08-17T23:28:41.103Z,98572.13
2022-08-17T23:31:09.864Z,98573.75
2022-08-17T23:33:40.882Z,98576.97
2022-08-17T23:36:15.436Z,98568.91
2022-08-17T23:38:44.705Z,98574.13
2022-08-17T23:41:17.035Z,98567.69
2022-08-17T23:43:58.207Z,98568.47
2022-08-17T23:46:26.650Z,98575.31
2022-08-17T23:48:56.442Z,98576.50
2022-08-17T23:51:28.838Z,98576.09
2022-08-17T23:54:07.959Z,98577.72
2022-08-17T23:56:42.100Z,98564.38
2022-08-17T23:59:11.722Z,98563.97
